Time;durP1;ratioP1;P1;durP2;ratioP2;P2;SDS_P1;SDS_P2;PMS_P1;PMS_P2;Temp;Humidity;BMP_temperature;BMP_pressure;BME280_temperature;BME280_humidity;BME280_pressure;Samples;Min_cycle;Max_cycle;Signal;HPM_P1;HPM_P2
2022/04/08 00:00:28;;;;;;;;;;;18.70;58.40;;;;;;5053918;28;1165;-73
2022/04/08 00:02:53;;;;;;;;;;;18.70;58.50;;;;;;5054106;28;784;-72
2022/04/08 00:05:18;;;;;;;;;;;18.70;58.50;;;;;;5053916;28;1968;-73
2022/04/08 00:07:44;;;;;;;;;;;18.70;58.50;;;;;;5053673;28;895;-72
2022/04/08 00:10:09;;;;;;;;;;;18.60;58.40;;;;;;5053666;28;781;-73
2022/04/08 00:12:35;;;;;;;;;;;18.60;58.50;;;;;;5054236;28;1264;-68
2022/04/08 00:15:00;;;;;;;;;;;18.60;58.50;;;;;;5053742;28;879;-68
2022/04/08 00:17:26;;;;;;;;;;;18.60;58.50;;;;;;5053544;28;1073;-68
2022/04/08 00:19:51;;;;;;;;;;;18.60;58.50;;;;;;5053687;28;823;-68
2022/04/08 00:22:18;;;;;;;;;;;18.60;58.50;;;;;;5036023;28;1178;-69
2022/04/08 00:24:44;;;;;;;;;;;18.60;58.50;;;;;;5035822;28;1898;-69
2022/04/08 00:27:09;;;;;;;;;;;18.60;58.50;;;;;;5043611;28;1250;-70
2022/04/08 00:29:35;;;;;;;;;;;18.60;59.10;;;;;;5073451;28;895;-68
2022/04/08 00:32:00;;;;;;;;;;;18.60;58.50;;;;;;5073547;28;1171;-68
2022/04/08 00:34:26;;;;;;;;;;;18.60;58.60;;;;;;5062126;28;1390;-68
2022/04/08 00:36:53;;;;;;;;;;;18.60;58.60;;;;;;5046650;28;1503;-68
2022/04/08 00:39:19;;;;;;;;;;;18.60;58.60;;;;;;5053334;28;879;-68
2022/04/08 00:41:44;;;;;;;;;;;18.60;58.60;;;;;;5053348;28;1198;-69
2022/04/08 00:44:10;;;;;;;;;;;18.60;58.60;;;;;;5035548;28;1965;-69
2022/04/08 00:46:37;;;;;;;;;;;18.60;58.60;;;;;;5053060;28;815;-69
2022/04/08 00:49:03;;;;;;;;;;;18.60;58.60;;;;;;5053263;28;832;-69
2022/04/08 00:51:29;;;;;;;;;;;18.60;58.60;;;;;;5053404;28;1185;-69
2022/04/08 00:53:54;;;;;;;;;;;18.60;58.60;;;;;;5035317;28;739;-69
2022/04/08 00:56:21;;;;;;;;;;;18.60;58.60;;;;;;5035133;28;855;-69
2022/04/08 00:58:47;;;;;;;;;;;18.60;58.70;;;;;;5035566;28;1123;-68
2022/04/08 01:01:12;;;;;;;;;;;18.60;58.70;;;;;;5035238;28;1180;-69
2022/04/08 01:03:38;;;;;;;;;;;18.60;58.70;;;;;;5053584;28;742;-68
2022/04/08 01:06:03;;;;;;;;;;;18.60;58.70;;;;;;5036205;28;1902;-70
2022/04/08 01:08:29;;;;;;;;;;;18.60;58.70;;;;;;5036146;28;802;-71
2022/04/08 01:10:54;;;;;;;;;;;18.60;58.70;;;;;;5054116;28;1279;-70
2022/04/08 01:13:20;;;;;;;;;;;18.60;58.70;;;;;;5036546;28;835;-69
2022/04/08 01:15:45;;;;;;;;;;;18.60;58.70;;;;;;5053489;28;1077;-69
2022/04/08 01:18:11;;;;;;;;;;;18.60;58.70;;;;;;5053644;28;757;-69
2022/04/08 01:20:36;;;;;;;;;;;18.60;58.80;;;;;;5035302;28;1279;-68
2022/04/08 01:23:02;;;;;;;;;;;18.60;58.70;;;;;;5053031;28;757;-67
2022/04/08 01:25:27;;;;;;;;;;;18.60;58.70;;;;;;5052709;28;1914;-66
2022/04/08 01:27:53;;;;;;;;;;;18.50;58.80;;;;;;5052899;28;982;-67
2022/04/08 01:30:18;;;;;;;;;;;18.50;58.70;;;;;;5053208;28;808;-67
2022/04/08 01:32:44;;;;;;;;;;;18.50;58.80;;;;;;5052823;28;1239;-68
2022/04/08 01:35:09;;;;;;;;;;;18.50;58.90;;;;;;5054294;28;1572;-67
2022/04/08 01:37:35;;;;;;;;;;;18.50;58.80;;;;;;5056474;28;1468;-67
2022/04/08 01:40:00;;;;;;;;;;;18.50;58.80;;;;;;5056690;28;871;-67
2022/04/08 01:42:26;;;;;;;;;;;18.50;58.80;;;;;;5056635;28;1115;-67
2022/04/08 01:44:52;;;;;;;;;;;18.60;58.70;;;;;;5056669;28;1894;-67
2022/04/08 01:47:17;;;;;;;;;;;18.60;58.70;;;;;;5060447;28;1217;-67
2022/04/08 01:49:43;;;;;;;;;;;18.60;58.70;;;;;;5076732;28;825;-67
2022/04/08 01:52:08;;;;;;;;;;;18.60;58.60;;;;;;5058933;28;1544;-67
2022/04/08 01:54:33;;;;;;;;;;;18.60;58.50;;;;;;5076669;28;1021;-67
2022/04/08 01:56:59;;;;;;;;;;;18.60;58.50;;;;;;5076579;28;930;-68
2022/04/08 01:59:24;;;;;;;;;;;18.70;58.50;;;;;;5076480;28;867;-68
2022/04/08 02:01:50;;;;;;;;;;;18.70;58.40;;;;;;5064679;28;2060;-70
2022/04/08 02:04:16;;;;;;;;;;;18.70;58.30;;;;;;5056276;28;1910;-70
2022/04/08 02:06:42;;;;;;;;;;;18.80;58.30;;;;;;5056083;28;1458;-69
2022/04/08 02:09:08;;;;;;;;;;;18.80;58.20;;;;;;5056779;28;808;-69
2022/04/08 02:11:34;;;;;;;;;;;18.80;58.20;;;;;;5056238;28;1295;-69
2022/04/08 02:14:00;;;;;;;;;;;18.80;58.10;;;;;;5054573;28;1111;-70
2022/04/08 02:16:25;;;;;;;;;;;18.80;58.10;;;;;;5055682;28;1523;-69
2022/04/08 02:18:51;;;;;;;;;;;18.80;58.00;;;;;;5056274;28;1502;-69
2022/04/08 02:21:19;;;;;;;;;;;18.80;58.00;;;;;;5062142;28;1623;-70
2022/04/08 02:23:46;;;;;;;;;;;18.90;58.00;;;;;;5056560;28;1623;-70
2022/04/08 02:26:13;;;;;;;;;;;18.80;57.90;;;;;;5056213;28;1902;-71
2022/04/08 02:28:38;;;;;;;;;;;18.90;57.90;;;;;;5075894;28;1275;-68
2022/04/08 02:31:05;;;;;;;;;;;18.90;57.90;;;;;;5077857;28;1286;-70
2022/04/08 02:33:31;;;;;;;;;;;18.90;57.80;;;;;;5074501;28;1031;-70
2022/04/08 02:35:56;;;;;;;;;;;18.90;57.80;;;;;;5055385;28;1401;-69
2022/04/08 02:38:21;;;;;;;;;;;18.90;57.80;;;;;;5055489;28;1230;-69
2022/04/08 02:40:47;;;;;;;;;;;18.90;57.80;;;;;;5055550;28;1191;-68
2022/04/08 02:43:12;;;;;;;;;;;18.90;57.80;;;;;;5054529;28;839;-71
2022/04/08 02:45:38;;;;;;;;;;;18.90;57.70;;;;;;5054927;28;1968;-70
2022/04/08 02:48:03;;;;;;;;;;;18.90;57.70;;;;;;5051194;28;1096;-69
2022/04/08 02:50:29;;;;;;;;;;;18.90;57.70;;;;;;5055146;28;1244;-69
2022/04/08 02:52:54;;;;;;;;;;;18.90;57.70;;;;;;5055127;28;910;-69
2022/04/08 02:55:19;;;;;;;;;;;18.90;57.70;;;;;;5055350;28;898;-69
2022/04/08 02:57:46;;;;;;;;;;;18.90;57.60;;;;;;5055020;28;1030;-69
2022/04/08 03:00:20;;;;;;;;;;;18.90;57.60;;;;;;5037267;28;1226;-69
2022/04/08 03:02:46;;;;;;;;;;;18.90;57.60;;;;;;5037279;28;1200;-69
2022/04/08 03:05:12;;;;;;;;;;;18.90;57.60;;;;;;5037006;28;2077;-69
2022/04/08 03:07:37;;;;;;;;;;;19.00;57.60;;;;;;5036918;28;835;-69
2022/04/08 03:10:03;;;;;;;;;;;19.00;57.60;;;;;;5037065;28;990;-69
2022/04/08 03:12:29;;;;;;;;;;;19.00;57.60;;;;;;5036835;28;1323;-69
2022/04/08 03:14:54;;;;;;;;;;;19.00;57.60;;;;;;5037032;28;1458;-70
2022/04/08 03:17:20;;;;;;;;;;;19.00;57.60;;;;;;5036739;28;1224;-69
2022/04/08 03:19:45;;;;;;;;;;;19.00;57.60;;;;;;5036809;28;1072;-69
2022/04/08 03:22:10;;;;;;;;;;;19.00;57.50;;;;;;5054519;28;1271;-69
2022/04/08 03:24:36;;;;;;;;;;;19.00;57.50;;;;;;5054674;28;1898;-69
2022/04/08 03:27:01;;;;;;;;;;;19.00;57.50;;;;;;5054343;28;898;-69
2022/04/08 03:29:27;;;;;;;;;;;19.00;57.50;;;;;;5054790;28;1038;-70
2022/04/08 03:31:52;;;;;;;;;;;19.00;57.50;;;;;;5054622;28;1203;-68
2022/04/08 03:34:18;;;;;;;;;;;19.00;57.50;;;;;;5054363;28;1234;-69
2022/04/08 03:36:45;;;;;;;;;;;19.00;57.50;;;;;;5054096;28;1141;-69
2022/04/08 03:39:13;;;;;;;;;;;19.00;57.50;;;;;;5037122;28;823;-69
2022/04/08 03:41:39;;;;;;;;;;;19.00;57.50;;;;;;5054543;28;1179;-69
2022/04/08 03:44:05;;;;;;;;;;;19.00;57.40;;;;;;5036538;28;1898;-69
2022/04/08 03:46:30;;;;;;;;;;;19.00;57.50;;;;;;5054156;28;1178;-69
2022/04/08 03:48:55;;;;;;;;;;;19.00;57.40;;;;;;5054036;28;826;-69
2022/04/08 03:51:21;;;;;;;;;;;19.00;57.40;;;;;;5053902;28;1205;-69
2022/04/08 03:53:46;;;;;;;;;;;19.00;57.40;;;;;;5054158;28;856;-69
2022/04/08 03:56:12;;;;;;;;;;;19.00;57.50;;;;;;5053810;28;919;-69
2022/04/08 03:58:37;;;;;;;;;;;19.00;57.40;;;;;;5035994;28;930;-69
2022/04/08 04:01:02;;;;;;;;;;;19.00;57.40;;;;;;5054029;28;1286;-69
2022/04/08 04:03:28;;;;;;;;;;;19.00;57.40;;;;;;5054028;28;895;-70
2022/04/08 04:05:53;;;;;;;;;;;19.00;57.40;;;;;;5035548;28;1886;-70
2022/04/08 04:08:19;;;;;;;;;;;19.00;57.40;;;;;;5036144;28;1239;-70
2022/04/08 04:10:45;;;;;;;;;;;19.00;57.40;;;;;;5053580;28;1210;-70
2022/04/08 04:13:10;;;;;;;;;;;19.00;57.40;;;;;;5053635;28;784;-69
2022/04/08 04:15:36;;;;;;;;;;;19.00;57.40;;;;;;5053526;28;1041;-70
2022/04/08 04:18:01;;;;;;;;;;;19.00;57.40;;;;;;5053595;28;838;-69
2022/04/08 04:20:27;;;;;;;;;;;19.00;57.40;;;;;;5035816;28;1280;-70
2022/04/08 04:22:53;;;;;;;;;;;19.00;57.40;;;;;;5053682;28;895;-70
2022/04/08 04:25:19;;;;;;;;;;;19.00;57.40;;;;;;5053399;28;1906;-69
2022/04/08 04:27:44;;;;;;;;;;;19.00;57.40;;;;;;5035580;28;963;-70
2022/04/08 04:30:10;;;;;;;;;;;19.00;57.40;;;;;;5053422;28;808;-70
2022/04/08 04:32:35;;;;;;;;;;;19.10;57.40;;;;;;5053934;28;1271;-70
2022/04/08 04:35:06;;;;;;;;;;;19.00;57.40;;;;;;5053235;28;1154;-69
2022/04/08 04:37:35;;;;;;;;;;;19.00;57.40;;;;;;5053137;28;1079;-69
2022/04/08 04:40:01;;;;;;;;;;;19.00;57.40;;;;;;5053243;28;1045;-69
2022/04/08 04:42:27;;;;;;;;;;;19.10;57.40;;;;;;5053238;28;1182;-70
2022/04/08 04:44:53;;;;;;;;;;;19.00;57.40;;;;;;5053302;28;1907;-70
2022/04/08 04:47:18;;;;;;;;;;;19.00;57.40;;;;;;5052621;28;1131;-70
2022/04/08 04:49:44;;;;;;;;;;;19.00;57.40;;;;;;5035387;28;695;-70
2022/04/08 04:52:09;;;;;;;;;;;19.00;57.30;;;;;;5035193;28;1219;-70
2022/04/08 04:54:35;;;;;;;;;;;19.00;57.30;;;;;;5053176;28;1010;-69
2022/04/08 04:57:00;;;;;;;;;;;19.00;57.30;;;;;;5052749;28;895;-70
2022/04/08 04:59:26;;;;;;;;;;;19.00;57.30;;;;;;5053593;28;895;-70
2022/04/08 05:01:51;;;;;;;;;;;19.00;57.30;;;;;;5052769;28;1273;-70
2022/04/08 05:04:16;;;;;;;;;;;19.00;57.40;;;;;;5035039;28;1906;-69
2022/04/08 05:06:42;;;;;;;;;;;19.00;57.30;;;;;;5052740;28;1141;-69
2022/04/08 05:09:07;;;;;;;;;;;19.00;57.30;;;;;;5034675;28;935;-69
2022/04/08 05:11:33;;;;;;;;;;;19.10;57.40;;;;;;5052397;28;1199;-68
2022/04/08 05:13:59;;;;;;;;;;;19.00;57.40;;;;;;5052947;28;784;-69
2022/04/08 05:16:24;;;;;;;;;;;19.00;57.40;;;;;;5052488;28;844;-70
2022/04/08 05:18:50;;;;;;;;;;;19.10;57.40;;;;;;5034999;28;1042;-70
2022/04/08 05:21:15;;;;;;;;;;;19.00;57.40;;;;;;5034946;28;1157;-70
2022/04/08 05:23:41;;;;;;;;;;;19.10;57.40;;;;;;5052961;28;966;-70
2022/04/08 05:26:06;;;;;;;;;;;19.00;57.30;;;;;;5052488;28;1972;-69
2022/04/08 05:28:31;;;;;;;;;;;19.00;57.30;;;;;;5052754;28;870;-68
2022/04/08 05:30:57;;;;;;;;;;;19.10;57.40;;;;;;5052456;28;1208;-69
2022/04/08 05:33:22;;;;;;;;;;;19.10;57.40;;;;;;5035149;28;1167;-69
2022/04/08 05:35:48;;;;;;;;;;;19.10;57.40;;;;;;5046074;28;2119;-68
2022/04/08 05:38:14;;;;;;;;;;;19.10;57.40;;;;;;5025817;28;1837;-67
2022/04/08 05:40:40;;;;;;;;;;;19.10;57.40;;;;;;5051346;28;1342;-68
2022/04/08 05:43:06;;;;;;;;;;;19.10;57.40;;;;;;5051564;28;851;-67
2022/04/08 05:45:31;;;;;;;;;;;19.10;57.40;;;;;;5051092;28;1898;-68
2022/04/08 05:48:01;;;;;;;;;;;19.10;57.40;;;;;;5052606;28;1494;-68
2022/04/08 05:50:26;;;;;;;;;;;19.10;57.40;;;;;;5034621;28;1588;-67
2022/04/08 05:52:52;;;;;;;;;;;19.10;57.40;;;;;;5052520;28;950;-68
2022/04/08 05:55:17;;;;;;;;;;;19.10;57.40;;;;;;5052876;28;946;-67
2022/04/08 05:57:42;;;;;;;;;;;19.10;57.40;;;;;;5034305;28;1099;-67
2022/04/08 06:00:12;;;;;;;;;;;19.00;57.30;;;;;;5052305;28;1088;-67
2022/04/08 06:02:37;;;;;;;;;;;19.10;57.40;;;;;;5052537;28;1201;-67
2022/04/08 06:05:03;;;;;;;;;;;19.10;57.40;;;;;;5034523;28;1897;-67
2022/04/08 06:07:28;;;;;;;;;;;19.10;57.40;;;;;;5052068;28;927;-68
2022/04/08 06:09:56;;;;;;;;;;;19.10;57.40;;;;;;5052264;28;950;-67
2022/04/08 06:12:21;;;;;;;;;;;19.10;57.40;;;;;;5057502;22;2163;-73
2022/04/08 06:14:47;;;;;;;;;;;19.10;57.30;;;;;;5031443;28;914;-73
2022/04/08 06:17:12;;;;;;;;;;;19.10;57.30;;;;;;5032191;28;1013;-71
2022/04/08 06:19:38;;;;;;;;;;;19.10;57.30;;;;;;5031172;28;807;-72
2022/04/08 06:22:03;;;;;;;;;;;19.10;57.40;;;;;;5033605;28;1298;-75
2022/04/08 06:24:29;;;;;;;;;;;19.10;57.40;;;;;;5036059;28;1902;-73
2022/04/08 06:26:54;;;;;;;;;;;19.10;57.30;;;;;;5017819;28;930;-72
2022/04/08 06:29:19;;;;;;;;;;;19.10;57.40;;;;;;5035756;28;868;-77
2022/04/08 06:31:45;;;;;;;;;;;19.10;57.40;;;;;;5017951;28;1299;-71
2022/04/08 06:34:10;;;;;;;;;;;19.10;57.40;;;;;;5043321;28;1147;-72
2022/04/08 06:36:36;;;;;;;;;;;19.10;57.40;;;;;;5055278;28;1170;-74
2022/04/08 06:39:01;;;;;;;;;;;19.10;57.30;;;;;;5054491;28;812;-73
2022/04/08 06:41:27;;;;;;;;;;;19.10;57.30;;;;;;5054098;28;1213;-71
2022/04/08 06:43:52;;;;;;;;;;;19.10;57.30;;;;;;5070837;28;1149;-71
2022/04/08 06:46:17;;;;;;;;;;;19.10;57.30;;;;;;5054825;28;1890;-74
2022/04/08 06:48:43;;;;;;;;;;;19.10;57.30;;;;;;5055363;28;800;-75
2022/04/08 06:51:08;;;;;;;;;;;19.10;57.40;;;;;;5037324;28;1207;-76
2022/04/08 06:53:34;;;;;;;;;;;19.10;57.40;;;;;;5037486;28;1065;-75
2022/04/08 06:56:01;;;;;;;;;;;19.10;57.20;;;;;;5055328;28;799;-75
2022/04/08 06:58:27;;;;;;;;;;;19.10;57.20;;;;;;5021049;28;1289;-75
2022/04/08 07:00:53;;;;;;;;;;;19.20;57.10;;;;;;5037037;28;1204;-72
2022/04/08 07:03:18;;;;;;;;;;;19.30;57.00;;;;;;5055164;28;1010;-74
2022/04/08 07:05:44;;;;;;;;;;;19.40;56.90;;;;;;5054672;28;1961;-74
2022/04/08 07:08:09;;;;;;;;;;;19.50;56.70;;;;;;5055069;28;844;-74
2022/04/08 07:10:35;;;;;;;;;;;19.60;56.50;;;;;;5037053;28;866;-74
2022/04/08 07:13:00;;;;;;;;;;;19.70;56.40;;;;;;5054727;28;1184;-74
2022/04/08 07:15:25;;;;;;;;;;;19.80;56.20;;;;;;5053446;28;1183;-74
2022/04/08 07:17:51;;;;;;;;;;;19.90;55.90;;;;;;5053566;28;980;-75
2022/04/08 07:20:16;;;;;;;;;;;20.00;55.70;;;;;;5020404;28;1101;-75
2022/04/08 07:22:42;;;;;;;;;;;20.10;55.50;;;;;;5054551;28;1204;-74
2022/04/08 07:25:08;;;;;;;;;;;20.20;55.30;;;;;;5054733;28;1902;-74
2022/04/08 07:27:41;;;;;;;;;;;20.30;55.10;;;;;;5036492;28;954;-74
2022/04/08 07:30:07;;;;;;;;;;;20.40;54.90;;;;;;5054493;28;808;-75
2022/04/08 07:32:32;;;;;;;;;;;20.40;54.70;;;;;;5053718;28;1137;-75
2022/04/08 07:34:58;;;;;;;;;;;20.50;54.50;;;;;;5049140;28;1201;-75
2022/04/08 07:37:29;;;;;;;;;;;20.60;54.40;;;;;;5043571;28;1107;-75
2022/04/08 07:39:55;;;;;;;;;;;20.60;54.30;;;;;;5036511;28;1162;-75
2022/04/08 07:42:20;;;;;;;;;;;20.70;54.30;;;;;;5054074;28;1205;-75
2022/04/08 07:44:46;;;;;;;;;;;20.70;54.20;;;;;;5019794;28;1899;-74
2022/04/08 07:47:11;;;;;;;;;;;20.70;54.10;;;;;;5053882;28;1248;-75
2022/04/08 07:49:38;;;;;;;;;;;20.70;54.10;;;;;;5054155;28;1053;-75
2022/04/08 07:52:03;;;;;;;;;;;20.80;54.10;;;;;;5035979;28;1296;-75
2022/04/08 07:54:29;;;;;;;;;;;20.70;54.00;;;;;;5053995;28;950;-75
2022/04/08 07:56:54;;;;;;;;;;;20.80;54.10;;;;;;5053594;28;722;-74
2022/04/08 07:59:20;;;;;;;;;;;20.80;54.10;;;;;;5054025;28;788;-75
2022/04/08 08:01:46;;;;;;;;;;;20.70;54.10;;;;;;5035950;28;1225;-74
2022/04/08 08:04:11;;;;;;;;;;;20.80;54.10;;;;;;5019655;28;1969;-75
2022/04/08 08:06:37;;;;;;;;;;;20.80;54.10;;;;;;5035730;28;1155;-75
2022/04/08 08:09:02;;;;;;;;;;;20.80;54.10;;;;;;5036022;28;874;-75
2022/04/08 08:11:28;;;;;;;;;;;20.70;54.10;;;;;;5053490;28;1198;-75
2022/04/08 08:13:53;;;;;;;;;;;20.70;54.00;;;;;;5036870;28;2108;-74
2022/04/08 08:16:19;;;;;;;;;;;20.70;54.10;;;;;;5053243;28;1225;-74
2022/04/08 08:18:44;;;;;;;;;;;20.70;54.10;;;;;;5052735;28;1154;-75
2022/04/08 08:21:09;;;;;;;;;;;20.70;54.10;;;;;;5053598;28;1225;-75
2022/04/08 08:23:35;;;;;;;;;;;20.70;54.20;;;;;;5053674;28;799;-75
2022/04/08 08:26:00;;;;;;;;;;;20.70;54.30;;;;;;5052108;28;1910;-74
2022/04/08 08:28:26;;;;;;;;;;;20.60;54.30;;;;;;5053461;28;922;-75
2022/04/08 08:30:51;;;;;;;;;;;20.60;54.30;;;;;;5053486;28;921;-75
2022/04/08 08:33:17;;;;;;;;;;;20.60;54.40;;;;;;5053372;28;1330;-75
2022/04/08 08:35:42;;;;;;;;;;;20.60;54.50;;;;;;5053141;28;699;-75
2022/04/08 08:38:08;;;;;;;;;;;20.50;54.40;;;;;;5053229;28;1111;-75
2022/04/08 08:40:34;;;;;;;;;;;20.50;54.50;;;;;;5035446;28;863;-75
2022/04/08 08:43:00;;;;;;;;;;;20.50;54.60;;;;;;5053136;28;1235;-75
2022/04/08 08:45:29;;;;;;;;;;;20.50;54.60;;;;;;5034688;28;1965;-74
2022/04/08 08:47:55;;;;;;;;;;;20.50;54.60;;;;;;5035798;28;1192;-75
2022/04/08 08:50:21;;;;;;;;;;;20.50;54.70;;;;;;5036193;28;1204;-75
2022/04/08 08:52:49;;;;;;;;;;;20.50;54.70;;;;;;5018705;28;1294;-75
2022/04/08 08:55:15;;;;;;;;;;;20.50;54.80;;;;;;5035341;28;809;-72
2022/04/08 08:57:42;;;;;;;;;;;20.50;54.90;;;;;;5052742;28;883;-72
2022/04/08 09:00:12;;;;;;;;;;;20.40;54.90;;;;;;5030897;28;1854;-71
2022/04/08 09:02:38;;;;;;;;;;;20.40;54.90;;;;;;5035229;28;1212;-68
2022/04/08 09:05:10;;;;;;;;;;;20.40;54.90;;;;;;5052825;28;1953;-72
2022/04/08 09:07:35;;;;;;;;;;;20.40;55.00;;;;;;5052507;28;851;-73
2022/04/08 09:10:00;;;;;;;;;;;20.40;55.10;;;;;;5034814;28;1281;-73
2022/04/08 09:12:26;;;;;;;;;;;20.30;55.10;;;;;;5027740;28;1542;-71
2022/04/08 09:14:52;;;;;;;;;;;20.30;55.10;;;;;;5052795;28;903;-71
2022/04/08 09:17:18;;;;;;;;;;;20.30;55.20;;;;;;5051067;28;1286;-68
2022/04/08 09:19:50;;;;;;;;;;;20.30;55.20;;;;;;5052878;28;799;-67
2022/04/08 09:22:16;;;;;;;;;;;20.20;55.20;;;;;;5052318;28;1209;-73
2022/04/08 09:24:41;;;;;;;;;;;20.20;55.30;;;;;;5034883;28;1898;-71
2022/04/08 09:27:07;;;;;;;;;;;20.20;55.60;;;;;;5052262;28;953;-69
2022/04/08 09:29:32;;;;;;;;;;;20.20;55.40;;;;;;5035012;28;884;-72
2022/04/08 09:31:57;;;;;;;;;;;20.20;55.50;;;;;;5018268;28;1373;-69
2022/04/08 09:34:23;;;;;;;;;;;20.10;55.50;;;;;;5034713;28;1202;-69
2022/04/08 09:36:48;;;;;;;;;;;20.10;55.50;;;;;;5039142;28;1127;-72
2022/04/08 09:39:14;;;;;;;;;;;20.20;55.60;;;;;;5051659;28;1018;-77
2022/04/08 09:41:40;;;;;;;;;;;20.10;55.60;;;;;;5032180;28;1357;-72
2022/04/08 09:44:06;;;;;;;;;;;20.10;55.70;;;;;;5052304;28;1915;-71
2022/04/08 09:46:32;;;;;;;;;;;20.10;55.70;;;;;;5017939;28;1132;-70
2022/04/08 09:48:57;;;;;;;;;;;20.00;55.70;;;;;;5052416;28;850;-71
2022/04/08 09:51:23;;;;;;;;;;;20.00;55.80;;;;;;5034724;28;1235;-73
2022/04/08 09:53:58;;;;;;;;;;;20.00;55.80;;;;;;5052400;28;823;-73
2022/04/08 09:56:25;;;;;;;;;;;20.00;55.80;;;;;;5053846;28;792;-73
2022/04/08 09:58:59;;;;;;;;;;;20.00;55.90;;;;;;5038542;28;811;-72
2022/04/08 10:01:26;;;;;;;;;;;20.00;55.90;;;;;;5038353;28;1231;-74
2022/04/08 10:03:51;;;;;;;;;;;20.00;56.00;;;;;;5038369;28;863;-72
2022/04/08 10:06:17;;;;;;;;;;;20.00;56.00;;;;;;5037834;28;1965;-71
2022/04/08 10:08:43;;;;;;;;;;;19.90;56.00;;;;;;5056019;28;1002;-72
2022/04/08 10:11:20;;;;;;;;;;;19.90;56.10;;;;;;5021527;28;1189;-72
2022/04/08 10:13:49;;;;;;;;;;;19.90;56.10;;;;;;5022249;28;1159;-72
2022/04/08 10:16:15;;;;;;;;;;;19.90;56.20;;;;;;5038027;28;1092;-72
2022/04/08 10:18:40;;;;;;;;;;;19.90;56.20;;;;;;5055926;28;877;-72
2022/04/08 10:21:06;;;;;;;;;;;19.90;56.30;;;;;;5052958;28;1409;-71
2022/04/08 10:23:38;;;;;;;;;;;19.80;56.20;;;;;;5053930;28;729;-71
2022/04/08 10:26:05;;;;;;;;;;;19.80;56.30;;;;;;5054208;28;1914;-72
2022/04/08 10:28:35;;;;;;;;;;;19.80;56.40;;;;;;5054259;28;874;-71
2022/04/08 10:31:00;;;;;;;;;;;19.80;56.40;;;;;;5056094;28;1215;-71
2022/04/08 10:33:29;;;;;;;;;;;19.70;56.40;;;;;;5055648;28;883;-71
2022/04/08 10:35:55;;;;;;;;;;;19.70;56.50;;;;;;5055563;28;1259;-71
2022/04/08 10:38:20;;;;;;;;;;;19.70;56.50;;;;;;5037488;28;1457;-71
2022/04/08 10:40:53;;;;;;;;;;;19.70;56.60;;;;;;5054355;28;827;-71
2022/04/08 10:43:18;;;;;;;;;;;19.70;56.60;;;;;;5055797;28;1041;-71
2022/04/08 10:45:56;;;;;;;;;;;19.60;56.60;;;;;;5037818;28;1894;-71
2022/04/08 10:48:21;;;;;;;;;;;19.70;56.70;;;;;;5055436;28;875;-71
2022/04/08 10:50:46;;;;;;;;;;;19.70;56.80;;;;;;5037687;28;1050;-71
2022/04/08 10:53:13;;;;;;;;;;;19.60;56.80;;;;;;5055230;28;1282;-71
2022/04/08 10:55:44;;;;;;;;;;;19.60;56.80;;;;;;5055335;28;1026;-71
2022/04/08 10:58:09;;;;;;;;;;;19.60;56.80;;;;;;5055629;28;745;-71
2022/04/08 11:00:38;;;;;;;;;;;19.60;56.90;;;;;;5037391;28;1397;-71
2022/04/08 11:03:03;;;;;;;;;;;19.50;56.90;;;;;;5054923;28;1180;-71
2022/04/08 11:05:28;;;;;;;;;;;19.50;57.00;;;;;;5037366;28;1898;-71
2022/04/08 11:07:54;;;;;;;;;;;19.50;57.00;;;;;;5036189;28;1390;-70
2022/04/08 11:10:20;;;;;;;;;;;19.50;57.10;;;;;;5037475;28;907;-71
2022/04/08 11:12:46;;;;;;;;;;;19.50;57.10;;;;;;5036769;28;1177;-71
2022/04/08 11:15:12;;;;;;;;;;;19.40;57.10;;;;;;5054818;28;1406;-71
2022/04/08 11:17:37;;;;;;;;;;;19.40;57.10;;;;;;5054718;28;831;-71
2022/04/08 11:20:04;;;;;;;;;;;19.50;57.20;;;;;;5036995;28;879;-71
2022/04/08 11:22:40;;;;;;;;;;;19.40;57.20;;;;;;5054719;28;1284;-71
2022/04/08 11:25:05;;;;;;;;;;;19.40;57.30;;;;;;5037024;28;1906;-71
2022/04/08 11:27:31;;;;;;;;;;;19.40;57.30;;;;;;5054628;28;1010;-72
2022/04/08 11:29:56;;;;;;;;;;;19.40;57.30;;;;;;5054568;28;902;-72
2022/04/08 11:32:27;;;;;;;;;;;19.40;57.40;;;;;;5054506;28;1222;-72
2022/04/08 11:34:55;;;;;;;;;;;19.40;57.40;;;;;;5036652;28;1219;-72
2022/04/08 11:37:27;;;;;;;;;;;19.40;57.40;;;;;;5037058;28;1115;-71
2022/04/08 11:39:58;;;;;;;;;;;19.40;57.40;;;;;;5046445;28;2292;-72
2022/04/08 11:42:24;;;;;;;;;;;19.40;57.30;;;;;;5051647;28;1356;-72
2022/04/08 11:44:50;;;;;;;;;;;19.40;57.30;;;;;;5046455;28;1902;-71
2022/04/08 11:47:17;;;;;;;;;;;19.50;57.20;;;;;;5042145;28;1127;-72
2022/04/08 11:49:42;;;;;;;;;;;19.60;57.10;;;;;;5052951;28;835;-72
2022/04/08 11:52:08;;;;;;;;;;;19.60;57.00;;;;;;5035388;28;1296;-71
2022/04/08 11:54:37;;;;;;;;;;;19.60;56.80;;;;;;5035836;28;915;-74
2022/04/08 11:57:04;;;;;;;;;;;19.80;56.70;;;;;;5053634;28;820;-75
2022/04/08 11:59:30;;;;;;;;;;;19.80;56.60;;;;;;5019983;28;1324;-74
2022/04/08 12:01:59;;;;;;;;;;;19.90;56.40;;;;;;5053912;28;1219;-75
2022/04/08 12:04:24;;;;;;;;;;;20.00;56.30;;;;;;5036112;28;1887;-75
2022/04/08 12:06:49;;;;;;;;;;;20.00;56.10;;;;;;5053537;28;883;-74
2022/04/08 12:09:15;;;;;;;;;;;20.10;55.90;;;;;;5053798;28;867;-75
2022/04/08 12:11:42;;;;;;;;;;;20.20;55.80;;;;;;5058221;22;3529;-68
2022/04/08 12:14:08;;;;;;;;;;;20.20;55.60;;;;;;5034926;28;1692;-68
2022/04/08 12:16:34;;;;;;;;;;;20.30;55.50;;;;;;5035618;28;1200;-68
2022/04/08 12:19:00;;;;;;;;;;;20.30;55.40;;;;;;5053574;28;783;-69
2022/04/08 12:21:26;;;;;;;;;;;20.30;55.30;;;;;;5052299;28;1292;-68
2022/04/08 12:23:52;;;;;;;;;;;20.30;55.20;;;;;;5053487;28;1046;-68
2022/04/08 12:26:18;;;;;;;;;;;20.40;55.20;;;;;;5035499;28;1969;-68
2022/04/08 12:28:43;;;;;;;;;;;20.40;55.20;;;;;;5053554;28;946;-68
2022/04/08 12:31:16;;;;;;;;;;;20.40;55.10;;;;;;5053596;28;1029;-69
2022/04/08 12:33:41;;;;;;;;;;;20.40;55.10;;;;;;5053238;28;1214;-69
2022/04/08 12:36:07;;;;;;;;;;;20.40;55.10;;;;;;5035175;28;1099;-69
2022/04/08 12:38:32;;;;;;;;;;;20.40;55.10;;;;;;5053525;28;945;-69
2022/04/08 12:40:58;;;;;;;;;;;20.40;55.10;;;;;;5053218;28;934;-69
2022/04/08 12:43:23;;;;;;;;;;;20.40;55.20;;;;;;5053109;28;1271;-69
2022/04/08 12:45:49;;;;;;;;;;;20.40;55.20;;;;;;5052867;28;1894;-69
2022/04/08 12:48:14;;;;;;;;;;;20.40;55.20;;;;;;5053178;28;869;-68
2022/04/08 12:50:39;;;;;;;;;;;20.30;55.70;;;;;;5052856;28;850;-69
2022/04/08 12:53:05;;;;;;;;;;;20.30;55.20;;;;;;5035274;28;1330;-69
2022/04/08 12:55:30;;;;;;;;;;;20.30;55.20;;;;;;5052822;28;863;-69
2022/04/08 12:57:56;;;;;;;;;;;20.40;55.30;;;;;;5035116;28;887;-69
2022/04/08 13:00:23;;;;;;;;;;;20.30;55.20;;;;;;5053352;28;866;-68
2022/04/08 13:02:48;;;;;;;;;;;20.30;55.30;;;;;;5035342;28;1220;-68
2022/04/08 13:05:14;;;;;;;;;;;20.30;55.30;;;;;;5052778;28;1910;-68
2022/04/08 13:07:39;;;;;;;;;;;20.30;55.30;;;;;;5052608;28;776;-68
2022/04/08 13:10:05;;;;;;;;;;;20.30;55.40;;;;;;5052952;28;844;-69
2022/04/08 13:12:31;;;;;;;;;;;20.30;55.50;;;;;;5034834;28;1184;-69
2022/04/08 13:14:56;;;;;;;;;;;20.20;55.40;;;;;;5052794;28;832;-68
2022/04/08 13:17:22;;;;;;;;;;;20.20;55.40;;;;;;5052645;28;839;-69
2022/04/08 13:19:47;;;;;;;;;;;20.20;55.50;;;;;;5052888;28;863;-69
2022/04/08 13:22:14;;;;;;;;;;;20.20;55.50;;;;;;5052536;28;1216;-68
2022/04/08 13:24:40;;;;;;;;;;;20.20;55.50;;;;;;5052832;28;1910;-68
2022/04/08 13:27:05;;;;;;;;;;;20.20;55.50;;;;;;5052356;28;1017;-69
2022/04/08 13:29:30;;;;;;;;;;;20.20;55.60;;;;;;5052639;28;1022;-69
2022/04/08 13:31:56;;;;;;;;;;;20.20;55.60;;;;;;5055158;28;1230;-69
2022/04/08 13:34:21;;;;;;;;;;;20.20;55.60;;;;;;5056825;28;1131;-68
2022/04/08 13:36:47;;;;;;;;;;;20.20;55.60;;;;;;5056290;28;1078;-68
2022/04/08 13:39:12;;;;;;;;;;;20.10;55.60;;;;;;5038840;28;820;-68
2022/04/08 13:41:38;;;;;;;;;;;20.20;55.70;;;;;;5056500;28;1219;-68
2022/04/08 13:44:03;;;;;;;;;;;20.10;55.70;;;;;;5056589;28;1064;-68
2022/04/08 13:46:29;;;;;;;;;;;20.10;55.70;;;;;;5056155;28;1923;-68
2022/04/08 13:48:56;;;;;;;;;;;20.10;55.80;;;;;;5056516;28;774;-68
2022/04/08 13:51:25;;;;;;;;;;;20.10;55.80;;;;;;5056167;28;1236;-68
2022/04/08 13:53:53;;;;;;;;;;;20.10;55.80;;;;;;5056464;28;788;-67
2022/04/08 13:56:18;;;;;;;;;;;20.10;55.80;;;;;;5056145;28;815;-68
2022/04/08 13:58:44;;;;;;;;;;;20.10;55.90;;;;;;5056333;28;1041;-68
2022/04/08 14:01:09;;;;;;;;;;;20.10;55.90;;;;;;5038509;28;1033;-69
2022/04/08 14:03:35;;;;;;;;;;;20.00;55.90;;;;;;5055309;28;1672;-69
2022/04/08 14:06:00;;;;;;;;;;;20.00;55.90;;;;;;5075476;28;1901;-68
2022/04/08 14:08:25;;;;;;;;;;;20.00;55.90;;;;;;5058064;28;799;-68
2022/04/08 14:10:51;;;;;;;;;;;20.00;56.00;;;;;;5076051;28;847;-68
2022/04/08 14:13:16;;;;;;;;;;;20.00;56.00;;;;;;5075969;28;1194;-68
2022/04/08 14:15:42;;;;;;;;;;;20.00;56.00;;;;;;5075826;28;894;-68
2022/04/08 14:18:07;;;;;;;;;;;20.00;56.10;;;;;;5057929;28;855;-68
2022/04/08 14:20:33;;;;;;;;;;;20.00;56.10;;;;;;5075852;28;712;-68
2022/04/08 14:22:58;;;;;;;;;;;20.00;56.10;;;;;;5075794;28;1286;-68
2022/04/08 14:25:24;;;;;;;;;;;19.90;56.10;;;;;;5057988;28;1975;-68